createdAt,value
2019-04-22T00:01:50.338Z,63.90
2019-04-22T00:04:35.389Z,63.30
2019-04-22T00:07:09.787Z,63.10
2019-04-22T00:09:45.612Z,62.70
2019-04-22T00:12:22.219Z,62.50
2019-04-22T00:14:40.653Z,62.80
2019-04-22T00:17:26.305Z,62.70
2019-04-22T00:19:52.385Z,62.40
2019-04-22T00:22:22.076Z,62.40
2019-04-22T00:24:52.910Z,62.40
2019-04-22T00:27:28.179Z,62.90
2019-04-22T00:32:32.276Z,62.30
2019-04-22T00:34:59.245Z,63.00
2019-04-22T00:37:35.755Z,62.50
2019-04-22T00:40:07.378Z,62.10
2019-04-22T00:42:42.769Z,62.60
2019-04-22T00:45:11.743Z,62.70
2019-04-22T00:47:55.115Z,63.00
2019-04-22T00:50:18.945Z,63.40
2019-04-22T00:52:40.404Z,63.10
2019-04-22T00:55:23.125Z,63.10
2019-04-22T00:57:46.230Z,63.40
2019-04-22T01:00:17.640Z,64.00
2019-04-22T01:02:49.070Z,64.20
2019-04-22T01:05:25.594Z,65.20
2019-04-22T01:07:49.468Z,65.80
2019-04-22T01:10:23.227Z,65.40
2019-04-22T01:12:49.983Z,65.50
2019-04-22T01:15:26.134Z,65.50
2019-04-22T01:17:52.979Z,65.60
2019-04-22T01:20:45.953Z,65.70
2019-04-22T01:22:52.199Z,65.30
2019-04-22T01:25:23.675Z,65.50
2019-04-22T01:27:50.293Z,65.00
2019-04-22T01:30:18.595Z,65.60
2019-04-22T01:32:43.191Z,65.30
2019-04-22T01:35:24.450Z,65.90
2019-04-22T01:37:54.639Z,65.70
2019-04-22T01:40:38.915Z,65.10
2019-04-22T01:43:07.009Z,65.90
2019-04-22T01:45:39.435Z,65.90
2019-04-22T01:48:12.824Z,65.50
2019-04-22T01:50:37.248Z,65.90
2019-04-22T01:53:13.311Z,66.90
2019-04-22T01:55:45.383Z,65.30
2019-04-22T01:58:10.866Z,65.50
2019-04-22T02:00:51.189Z,65.90
2019-04-22T02:03:17.623Z,65.90
2019-04-22T02:05:43.922Z,65.30
2019-04-22T02:08:26.816Z,65.90
2019-04-22T02:13:25.152Z,65.30
2019-04-22T02:15:53.913Z,65.90
2019-04-22T02:18:24.400Z,66.00
2019-04-22T02:20:50.331Z,67.00
2019-04-22T02:26:02.465Z,66.30
2019-04-22T02:28:36.705Z,66.40
2019-04-22T02:31:20.804Z,66.40
2019-04-22T02:41:26.204Z,66.60
2019-04-22T02:43:51.952Z,66.70
2019-04-22T02:51:16.463Z,67.20
2019-04-22T02:54:15.172Z,68.10
2019-04-22T03:04:03.338Z,67.00
2019-04-22T03:06:30.424Z,67.50
2019-04-22T03:13:55.115Z,67.00
2019-04-22T03:16:33.258Z,67.20
2019-04-22T03:19:16.964Z,67.40
2019-04-22T03:24:08.557Z,66.80
2019-04-22T03:28:57.102Z,67.10
2019-04-22T03:39:40.122Z,68.10
2019-04-22T03:47:21.270Z,68.60
2019-04-22T03:49:37.196Z,68.60
2019-04-22T03:52:10.670Z,68.70
2019-04-22T03:54:39.437Z,68.70
2019-04-22T03:59:54.063Z,68.40
2019-04-22T04:09:40.593Z,69.80
2019-04-22T04:12:25.801Z,70.20
2019-04-22T04:17:09.448Z,70.60
2019-04-22T04:22:22.191Z,69.60
2019-04-22T04:24:53.574Z,69.50
2019-04-22T04:27:34.694Z,69.00
2019-04-22T04:30:02.749Z,68.70
2019-04-22T04:35:07.280Z,68.60
2019-04-22T04:39:53.481Z,68.70
2019-04-22T04:47:36.557Z,68.60
2019-04-22T04:50:09.262Z,68.70
2019-04-22T04:55:03.897Z,68.70
2019-04-22T05:00:22.031Z,69.30
2019-04-22T05:02:35.169Z,69.00
2019-04-22T05:10:03.890Z,68.90
2019-04-22T05:12:52.961Z,68.40
2019-04-22T05:15:04.237Z,68.80
2019-04-22T05:20:05.114Z,68.80
2019-04-22T05:22:28.609Z,69.50
2019-04-22T05:25:00.032Z,69.30
2019-04-22T05:27:34.955Z,69.10
2019-04-22T05:32:37.308Z,69.50
2019-04-22T05:34:59.677Z,69.70
2019-04-22T05:37:35.474Z,69.30
2019-04-22T05:40:14.060Z,69.80
2019-04-22T05:42:28.454Z,69.90
2019-04-22T05:45:04.548Z,70.40
2019-04-22T05:47:35.280Z,70.20
2019-04-22T05:50:03.609Z,70.40
2019-04-22T05:52:36.072Z,70.60
2019-04-22T05:55:12.580Z,70.70
2019-04-22T05:57:37.244Z,71.10
2019-04-22T06:00:14.365Z,71.30
2019-04-22T06:02:56.832Z,71.60
2019-04-22T06:05:11.728Z,71.70
2019-04-22T06:07:42.735Z,71.80
2019-04-22T06:10:20.482Z,72.00
2019-04-22T06:12:41.654Z,72.00
2019-04-22T06:15:19.494Z,72.00
2019-04-22T06:17:54.793Z,72.00
2019-04-22T06:20:15.914Z,72.30
2019-04-22T06:22:57.155Z,72.80
2019-04-22T06:25:30.151Z,73.20
2019-04-22T06:27:54.321Z,72.30
2019-04-22T06:30:28.752Z,72.00
2019-04-22T06:32:53.796Z,71.10
2019-04-22T06:35:32.495Z,71.90
2019-04-22T06:40:29.680Z,72.00
2019-04-22T06:45:30.584Z,72.10
2019-04-22T06:48:08.066Z,71.40
2019-04-22T06:55:35.635Z,71.20
2019-04-22T06:58:04.568Z,71.10
2019-04-22T07:00:38.645Z,71.20
2019-04-22T07:03:30.111Z,71.30
2019-04-22T07:05:32.591Z,70.90
2019-04-22T07:08:25.642Z,71.10
2019-04-22T07:10:45.091Z,71.10
2019-04-22T07:13:12.514Z,70.90
2019-04-22T07:20:48.057Z,71.60
2019-04-22T07:23:15.446Z,72.20
2019-04-22T07:30:44.687Z,71.80
2019-04-22T07:33:19.651Z,71.80
2019-04-22T07:35:57.498Z,72.50
2019-04-22T07:38:23.725Z,72.30
2019-04-22T07:41:00.559Z,72.50
2019-04-22T07:43:32.167Z,73.30
2019-04-22T07:45:49.179Z,72.00
2019-04-22T07:51:05.566Z,72.30
2019-04-22T07:53:21.860Z,71.80
2019-04-22T07:56:01.691Z,72.40
2019-04-22T08:01:07.203Z,70.90
2019-04-22T08:03:38.064Z,70.40
2019-04-22T08:08:28.758Z,70.10
2019-04-22T08:11:08.607Z,70.40
2019-04-22T08:13:38.848Z,70.30
2019-04-22T08:16:02.567Z,69.40
2019-04-22T08:18:39.557Z,69.00
2019-04-22T08:21:10.530Z,68.50
2019-04-22T08:23:45.700Z,68.50
2019-04-22T08:26:05.353Z,66.50
2019-04-22T08:28:45.842Z,64.20
2019-04-22T08:31:18.553Z,63.40
2019-04-22T08:33:39.971Z,63.60
2019-04-22T08:36:19.823Z,62.60
2019-04-22T08:39:02.496Z,62.10
2019-04-22T08:43:57.827Z,61.70
2019-04-22T08:46:30.158Z,61.90
2019-04-22T08:48:57.305Z,61.00
2019-04-22T08:51:25.073Z,61.90
2019-04-22T08:53:59.767Z,60.70
2019-04-22T08:59:04.721Z,60.00
2019-04-22T09:01:30.060Z,60.70
2019-04-22T09:09:06.507Z,62.10
2019-04-22T09:14:11.378Z,63.30
2019-04-22T09:16:37.400Z,63.20
2019-04-22T09:19:10.885Z,63.50
2019-04-22T09:21:37.854Z,63.40
2019-04-22T09:24:14.890Z,64.00
2019-04-22T09:26:45.040Z,64.20
2019-04-22T09:29:14.690Z,64.30
2019-04-22T09:31:47.505Z,64.50
2019-04-22T09:34:18.573Z,65.00
2019-04-22T09:37:06.215Z,64.50
2019-04-22T09:39:17.403Z,64.80
2019-04-22T09:41:48.309Z,65.50
2019-04-22T09:44:15.298Z,65.50
2019-04-22T09:46:47.024Z,65.10
2019-04-22T09:49:19.614Z,65.70
2019-04-22T09:51:53.627Z,66.40
2019-04-22T09:54:21.745Z,64.90
2019-04-22T09:56:49.331Z,64.40
2019-04-22T09:59:21.105Z,64.30
2019-04-22T10:02:05.653Z,64.80
2019-04-22T10:04:20.248Z,65.10
2019-04-22T10:06:47.136Z,64.90
2019-04-22T10:09:47.347Z,65.10
2019-04-22T10:11:58.705Z,65.10
2019-04-22T10:14:28.403Z,65.10
2019-04-22T10:16:53.808Z,65.20
2019-04-22T10:19:29.964Z,65.50
2019-04-22T10:22:04.531Z,65.80
2019-04-22T10:24:30.017Z,65.80
2019-04-22T10:26:56.365Z,65.60
2019-04-22T10:29:38.270Z,67.10
2019-04-22T10:32:05.410Z,66.70
2019-04-22T10:34:16.734Z,66.60
2019-04-22T10:36:39.792Z,66.00
2019-04-22T10:39:10.568Z,65.70
2019-04-22T10:41:40.843Z,66.20
2019-04-22T10:44:10.991Z,66.60
2019-04-22T10:46:40.513Z,65.80
2019-04-22T10:49:12.531Z,66.30
2019-04-22T10:51:42.385Z,66.40
2019-04-22T10:54:11.806Z,66.30
2019-04-22T10:56:41.175Z,66.60
2019-04-22T10:59:10.903Z,67.40
2019-04-22T11:01:40.340Z,67.80
2019-04-22T11:04:11.102Z,68.10
2019-04-22T11:06:48.660Z,67.60
2019-04-22T11:09:12.450Z,68.40
2019-04-22T11:11:50.165Z,68.60
2019-04-22T11:14:12.895Z,68.60
2019-04-22T11:16:43.499Z,68.10
2019-04-22T11:19:13.938Z,67.70
2019-04-22T11:21:44.615Z,68.20
2019-04-22T11:24:14.854Z,68.50
2019-04-22T11:26:45.171Z,69.00
2019-04-22T11:29:14.523Z,68.70
2019-04-22T11:31:44.350Z,68.40
2019-04-22T11:34:15.130Z,67.60
2019-04-22T11:36:45.051Z,67.80
2019-04-22T11:39:16.806Z,67.80
2019-04-22T11:41:46.413Z,67.40
2019-04-22T11:44:17.052Z,67.90
2019-04-22T11:46:47.479Z,68.70
2019-04-22T11:49:18.137Z,70.10
2019-04-22T11:51:47.876Z,70.10
2019-04-22T11:54:17.151Z,69.80
2019-04-22T11:56:47.312Z,69.90
2019-04-22T11:59:16.712Z,69.70
2019-04-22T12:01:46.818Z,69.30
2019-04-22T12:04:16.107Z,69.50
2019-04-22T12:06:46.147Z,69.00
2019-04-22T12:09:15.685Z,68.60
2019-04-22T12:11:44.920Z,68.70
2019-04-22T12:14:18.066Z,68.80
2019-04-22T12:16:47.765Z,68.60
2019-04-22T12:19:16.866Z,68.90
2019-04-22T12:21:46.826Z,68.70
2019-04-22T12:24:17.182Z,68.40
2019-04-22T12:26:46.528Z,68.30
2019-04-22T12:29:16.929Z,68.90
2019-04-22T12:31:47.272Z,67.70
2019-04-22T12:34:17.313Z,67.80
2019-04-22T12:36:46.872Z,67.20
2019-04-22T12:39:16.044Z,67.30
2019-04-22T12:41:46.436Z,67.40
2019-04-22T12:44:15.708Z,67.30
2019-04-22T12:46:46.020Z,66.90
2019-04-22T12:49:16.322Z,66.90
2019-04-22T12:51:46.936Z,67.10
2019-04-22T12:54:17.119Z,67.20
2019-04-22T12:56:47.796Z,67.20
2019-04-22T12:59:17.444Z,67.30
2019-04-22T13:01:46.887Z,67.00
2019-04-22T13:04:19.451Z,66.80
2019-04-22T13:06:48.015Z,66.60
2019-04-22T13:09:19.059Z,67.60
2019-04-22T13:11:48.967Z,67.90
2019-04-22T13:14:19.186Z,68.00
2019-04-22T13:16:49.247Z,68.10
2019-04-22T13:19:20.604Z,66.90
2019-04-22T13:21:49.280Z,66.10
2019-04-22T13:24:20.006Z,65.30
2019-04-22T13:26:50.575Z,65.10
2019-04-22T13:29:21.207Z,65.70
2019-04-22T13:31:50.834Z,65.80
2019-04-22T13:34:29.506Z,64.90
2019-04-22T13:36:50.906Z,65.30
2019-04-22T13:39:20.868Z,64.90
2019-04-22T13:41:54.582Z,63.00
2019-04-22T13:44:21.043Z,62.80
2019-04-22T13:47:08.634Z,63.20
2019-04-22T13:49:51.547Z,64.00
2019-04-22T13:52:35.670Z,64.90
2019-04-22T13:54:59.667Z,63.80
2019-04-22T13:57:10.532Z,62.90
2019-04-22T13:59:32.267Z,63.50
2019-04-22T14:02:12.736Z,64.20
2019-04-22T14:04:42.993Z,64.30
2019-04-22T14:07:12.657Z,62.10
2019-04-22T14:09:42.289Z,61.70
2019-04-22T14:12:13.675Z,62.50
2019-04-22T14:14:44.495Z,63.00
2019-04-22T14:17:13.481Z,62.90
2019-04-22T14:19:42.569Z,62.60
2019-04-22T14:22:11.800Z,62.40
2019-04-22T14:24:40.902Z,61.40
2019-04-22T14:27:20.753Z,60.70
2019-04-22T14:29:41.958Z,62.10
2019-04-22T14:32:17.825Z,62.50
2019-04-22T14:34:42.786Z,62.90
2019-04-22T14:37:12.065Z,62.30
2019-04-22T14:39:41.979Z,62.30
2019-04-22T14:42:28.498Z,61.70
2019-04-22T14:45:19.036Z,61.60
2019-04-22T14:47:45.128Z,59.80
2019-04-22T14:50:07.654Z,59.70
2019-04-22T14:52:40.451Z,59.20
2019-04-22T14:54:54.337Z,58.80
2019-04-22T14:57:17.042Z,57.80
2019-04-22T14:59:46.270Z,57.90
2019-04-22T15:02:16.110Z,57.80
2019-04-22T15:04:45.909Z,57.60
2019-04-22T15:07:15.176Z,57.60
2019-04-22T15:09:46.027Z,56.90
2019-04-22T15:12:25.680Z,57.30
2019-04-22T15:14:47.935Z,57.80
2019-04-22T15:17:38.885Z,58.50
2019-04-22T15:20:27.992Z,58.50
2019-04-22T15:22:57.073Z,58.70
2019-04-22T15:25:26.298Z,59.00
2019-04-22T15:27:55.680Z,59.10
2019-04-22T15:30:25.526Z,59.30
2019-04-22T15:32:54.755Z,59.30
2019-04-22T15:35:25.270Z,59.60
2019-04-22T15:37:55.214Z,59.90
2019-04-22T15:40:24.859Z,59.90
2019-04-22T15:42:55.010Z,59.80
2019-04-22T15:45:25.952Z,60.60
2019-04-22T15:47:55.926Z,60.10
2019-04-22T15:50:26.550Z,59.70
2019-04-22T15:52:58.897Z,60.00
2019-04-22T15:55:27.180Z,60.30
2019-04-22T15:57:57.618Z,60.30
2019-04-22T16:00:40.702Z,60.80
2019-04-22T16:02:57.682Z,60.60
2019-04-22T16:05:28.027Z,60.30
2019-04-22T16:07:57.348Z,59.40
2019-04-22T16:10:26.433Z,59.50
2019-04-22T16:13:05.472Z,59.50
2019-04-22T16:15:26.617Z,59.00
2019-04-22T16:17:55.832Z,58.80
2019-04-22T16:20:25.990Z,58.80
2019-04-22T16:23:23.990Z,58.90
2019-04-22T16:26:15.424Z,59.00
2019-04-22T16:28:45.124Z,59.20
2019-04-22T16:31:15.398Z,59.30
2019-04-22T16:33:47.697Z,59.50
2019-04-22T16:36:16.722Z,59.00
2019-04-22T16:38:46.865Z,58.80
2019-04-22T16:41:17.035Z,58.90
2019-04-22T16:43:46.712Z,59.20
2019-04-22T16:46:16.059Z,59.10
2019-04-22T16:48:45.504Z,60.00
2019-04-22T16:51:16.031Z,59.60
2019-04-22T16:53:45.381Z,59.50
2019-04-22T16:56:15.188Z,59.70
2019-04-22T16:58:44.657Z,59.90
2019-04-22T17:01:36.790Z,60.40
2019-04-22T17:04:23.087Z,60.70
2019-04-22T17:06:53.323Z,60.80
2019-04-22T17:09:23.761Z,61.00
2019-04-22T17:11:53.986Z,60.90
2019-04-22T17:14:32.370Z,60.70
2019-04-22T17:16:54.748Z,61.00
2019-04-22T17:19:23.993Z,61.40
2019-04-22T17:21:53.484Z,61.50
2019-04-22T17:24:23.653Z,61.40
2019-04-22T17:26:54.728Z,61.80
2019-04-22T17:29:26.216Z,61.80
2019-04-22T17:32:02.993Z,62.10
2019-04-22T17:34:29.528Z,62.50
2019-04-22T17:36:59.366Z,63.10
2019-04-22T17:39:41.131Z,63.40
2019-04-22T17:42:22.467Z,63.70
2019-04-22T17:45:17.631Z,63.80
2019-04-22T17:48:03.407Z,63.70
2019-04-22T17:50:40.003Z,64.10
2019-04-22T17:53:14.076Z,64.20
2019-04-22T17:55:50.605Z,64.10
2019-04-22T17:58:20.632Z,64.30
2019-04-22T18:00:44.482Z,64.60
2019-04-22T18:03:11.835Z,65.10
2019-04-22T18:05:35.656Z,65.20
2019-04-22T18:08:17.702Z,65.60
2019-04-22T18:10:56.074Z,65.90
2019-04-22T18:13:28.306Z,66.20
2019-04-22T18:16:01.035Z,66.70
2019-04-22T18:18:27.923Z,67.00
2019-04-22T18:20:49.952Z,67.40
2019-04-22T18:23:12.788Z,67.80
2019-04-22T18:26:03.418Z,68.10
2019-04-22T18:28:30.312Z,68.40
2019-04-22T18:30:57.043Z,68.70
2019-04-22T18:33:29.541Z,69.00
2019-04-22T18:36:01.115Z,69.10
2019-04-22T18:38:39.630Z,69.30
2019-04-22T18:41:01.625Z,69.70
2019-04-22T18:43:35.273Z,70.00
2019-04-22T18:48:33.251Z,70.20
2019-04-22T18:51:20.813Z,70.40
2019-04-22T18:54:11.878Z,70.50
2019-04-22T18:56:46.638Z,70.90
2019-04-22T18:59:08.402Z,71.20
2019-04-22T19:01:29.989Z,71.40
2019-04-22T19:04:08.979Z,71.60
2019-04-22T19:06:50.488Z,71.80
2019-04-22T19:09:27.629Z,72.10
2019-04-22T19:12:10.334Z,73.00
2019-04-22T19:14:24.849Z,72.20
2019-04-22T19:17:07.374Z,72.20
2019-04-22T19:21:56.068Z,72.40
2019-04-22T19:24:27.901Z,72.70
2019-04-22T19:26:59.206Z,72.80
2019-04-22T19:29:31.792Z,72.90
2019-04-22T19:32:01.558Z,72.90
2019-04-22T19:34:32.163Z,73.20
2019-04-22T19:37:02.181Z,73.60
2019-04-22T19:39:27.285Z,73.70
2019-04-22T19:42:15.010Z,73.70
2019-04-22T19:44:37.825Z,73.90
2019-04-22T19:47:19.624Z,74.30
2019-04-22T19:49:48.106Z,74.10
2019-04-22T19:54:41.847Z,74.30
2019-04-22T19:57:08.155Z,74.50
2019-04-22T19:59:48.165Z,74.70
2019-04-22T20:02:42.675Z,74.80
2019-04-22T20:05:37.184Z,75.10
2019-04-22T20:08:05.925Z,75.20
2019-04-22T20:10:34.888Z,75.50
2019-04-22T20:13:07.640Z,75.90
2019-04-22T20:15:29.232Z,76.30
2019-04-22T20:20:42.140Z,76.90
2019-04-22T20:23:06.686Z,77.20
2019-04-22T20:25:34.903Z,77.50
2019-04-22T20:28:14.804Z,78.10
2019-04-22T20:30:42.064Z,78.20
2019-04-22T20:33:12.001Z,78.10
2019-04-22T20:35:43.901Z,78.30
2019-04-22T20:38:16.303Z,79.20
2019-04-22T20:40:42.618Z,79.50
2019-04-22T20:43:23.524Z,79.50
2019-04-22T20:45:45.832Z,79.50
2019-04-22T20:48:07.978Z,79.70
2019-04-22T20:50:51.887Z,80.00
2019-04-22T20:53:26.359Z,80.20
2019-04-22T20:55:56.680Z,80.50
2019-04-22T20:58:22.393Z,80.90
2019-04-22T21:00:46.531Z,81.00
2019-04-22T21:03:13.292Z,81.10
2019-04-22T21:05:43.051Z,81.50
2019-04-22T21:08:24.165Z,81.50
2019-04-22T21:10:49.409Z,81.60
2019-04-22T21:13:20.616Z,81.70
2019-04-22T21:16:04.089Z,81.90
2019-04-22T21:18:24.717Z,81.80
2019-04-22T21:21:02.592Z,82.10
2019-04-22T21:23:23.123Z,82.10
2019-04-22T21:26:05.291Z,81.70
2019-04-22T21:28:34.189Z,82.40
2019-04-22T21:30:59.687Z,83.50
2019-04-22T21:33:27.027Z,83.10
2019-04-22T21:38:37.496Z,84.20
2019-04-22T21:41:05.998Z,83.80
2019-04-22T21:43:35.832Z,84.00
2019-04-22T21:46:12.999Z,84.10
2019-04-22T21:48:42.686Z,84.00
2019-04-22T21:51:12.309Z,83.90
2019-04-22T21:53:44.929Z,84.20
2019-04-22T21:56:29.092Z,84.40
2019-04-22T21:59:11.005Z,84.80
2019-04-22T22:04:16.193Z,85.80
2019-04-22T22:06:39.966Z,85.10
2019-04-22T22:09:22.499Z,85.10
2019-04-22T22:11:49.482Z,85.20
2019-04-22T22:14:19.561Z,85.30
2019-04-22T22:16:43.531Z,85.10
2019-04-22T22:19:22.494Z,85.10
2019-04-22T22:21:58.300Z,85.10
2019-04-22T22:24:27.195Z,85.20
2019-04-22T22:26:55.371Z,85.20
2019-04-22T22:29:36.785Z,85.60
2019-04-22T22:32:02.690Z,85.00
2019-04-22T22:34:43.614Z,85.20
2019-04-22T22:36:53.117Z,85.10
2019-04-22T22:39:24.835Z,85.00
2019-04-22T22:41:41.939Z,85.20
2019-04-22T22:44:18.301Z,85.30
2019-04-22T22:47:01.856Z,85.20
2019-04-22T22:49:36.133Z,85.10
2019-04-22T22:52:31.050Z,84.80
2019-04-22T22:54:34.125Z,84.80
2019-04-22T22:57:11.970Z,84.90
2019-04-22T22:59:38.381Z,84.90
2019-04-22T23:02:10.232Z,85.10
2019-04-22T23:04:39.608Z,85.30
2019-04-22T23:07:17.313Z,86.00
2019-04-22T23:09:43.777Z,85.00
2019-04-22T23:12:29.457Z,85.40
2019-04-22T23:14:48.635Z,85.60
2019-04-22T23:17:01.198Z,85.60
2019-04-22T23:19:24.004Z,85.90
2019-04-22T23:21:58.801Z,85.80
2019-04-22T23:24:55.615Z,86.10
2019-04-22T23:27:36.084Z,86.10
2019-04-22T23:30:12.803Z,86.00
2019-04-22T23:32:43.601Z,85.80
2019-04-22T23:35:48.885Z,85.70
2019-04-22T23:38:22.620Z,85.80
2019-04-22T23:40:54.095Z,85.90
2019-04-22T23:43:32.627Z,85.90
2019-04-22T23:45:57.933Z,85.90
2019-04-22T23:48:25.971Z,86.60
2019-04-22T23:51:03.379Z,86.20
2019-04-22T23:56:10.577Z,86.50
